createdAt,value
2023-02-16T00:05:00.420Z,83.64
2023-02-16T00:10:04.038Z,83.63
2023-02-16T00:15:20.666Z,83.56
2023-02-16T00:20:23.970Z,83.59
2023-02-16T00:25:27.224Z,83.76
2023-02-16T00:30:30.548Z,83.82
2023-02-16T00:35:33.700Z,83.91
2023-02-16T00:40:37.626Z,84.07
2023-02-16T00:45:40.662Z,84.12
2023-02-16T00:50:43.739Z,84.17
2023-02-16T00:55:47.384Z,84.10
2023-02-16T01:01:03.395Z,83.93
2023-02-16T01:06:26.651Z,83.74
2023-02-16T01:11:30.574Z,83.74
2023-02-16T01:16:40.869Z,83.82
2023-02-16T01:21:43.958Z,83.82
2023-02-16T01:26:50.634Z,83.93
2023-02-16T01:31:53.967Z,84.11
2023-02-16T01:36:57.161Z,84.30
2023-02-16T01:42:13.496Z,84.40
2023-02-16T01:47:33.294Z,84.46
2023-02-16T01:52:45.436Z,84.57
2023-02-16T01:58:06.824Z,84.68
2023-02-16T02:03:34.921Z,84.68
2023-02-16T02:09:09.283Z,84.67
2023-02-16T02:14:27.086Z,84.78
2023-02-16T02:19:45.582Z,84.83
2023-02-16T02:25:19.715Z,84.85
2023-02-16T02:30:50.635Z,84.97
2023-02-16T02:36:25.415Z,85.08
2023-02-16T02:41:58.035Z,85.17
2023-02-16T02:47:01.428Z,85.21
2023-02-16T02:52:05.604Z,85.11
2023-02-16T02:57:53.629Z,84.97
2023-02-16T03:03:08.294Z,85.16
2023-02-16T03:08:17.722Z,85.44
2023-02-16T03:13:36.281Z,85.62
2023-02-16T03:19:02.875Z,85.75
2023-02-16T03:24:30.045Z,85.58
2023-02-16T03:29:35.242Z,85.39
2023-02-16T03:34:38.405Z,85.37
2023-02-16T03:40:01.797Z,85.48
2023-02-16T03:45:05.821Z,85.67
2023-02-16T03:50:09.741Z,85.63
2023-02-16T03:55:13.969Z,85.71
2023-02-16T04:00:17.905Z,85.89
2023-02-16T04:05:21.005Z,85.85
2023-02-16T04:10:24.838Z,85.68
2023-02-16T04:15:30.970Z,85.67
2023-02-16T04:20:35.756Z,85.79
2023-02-16T04:25:38.860Z,85.94
2023-02-16T04:30:41.996Z,85.96
2023-02-16T04:35:45.790Z,86.06
2023-02-16T04:40:48.903Z,86.18
2023-02-16T04:45:52.339Z,86.34
2023-02-16T04:50:55.411Z,86.33
2023-02-16T04:55:58.520Z,86.27
2023-02-16T05:01:01.633Z,86.40
2023-02-16T05:06:05.688Z,86.44
2023-02-16T05:11:27.654Z,86.49
2023-02-16T05:16:30.807Z,86.70
2023-02-16T05:21:35.386Z,86.70
2023-02-16T05:26:40.212Z,86.75
2023-02-16T05:31:43.487Z,86.92
2023-02-16T05:36:46.868Z,86.95
2023-02-16T05:41:50.130Z,86.93
2023-02-16T05:46:53.349Z,86.89
2023-02-16T05:51:56.658Z,86.85
2023-02-16T05:56:59.762Z,86.68
2023-02-16T06:02:02.866Z,86.69
2023-02-16T06:07:05.981Z,86.82
2023-02-16T06:12:09.296Z,86.92
2023-02-16T06:17:12.396Z,87.03
2023-02-16T06:22:15.705Z,87.34
2023-02-16T06:27:19.043Z,87.07
2023-02-16T06:32:22.377Z,86.92
2023-02-16T06:37:25.738Z,86.90
2023-02-16T06:42:28.779Z,87.00
2023-02-16T06:47:31.848Z,87.22
2023-02-16T06:52:34.867Z,87.42
2023-02-16T06:57:38.060Z,87.48
2023-02-16T07:02:43.644Z,87.44
2023-02-16T07:07:46.934Z,87.29
2023-02-16T07:12:50.049Z,87.41
2023-02-16T07:17:53.248Z,87.43
2023-02-16T07:22:56.769Z,87.36
2023-02-16T07:28:00.015Z,87.36
2023-02-16T07:33:03.492Z,87.43
2023-02-16T07:38:08.035Z,87.57
2023-02-16T07:43:11.133Z,87.64
2023-02-16T07:48:14.192Z,87.61
2023-02-16T07:53:18.185Z,87.56
2023-02-16T07:58:30.281Z,87.32
2023-02-16T08:03:33.488Z,87.11
2023-02-16T08:08:38.235Z,86.95
2023-02-16T08:13:41.754Z,86.83
2023-02-16T08:18:45.538Z,86.54
2023-02-16T08:24:01.836Z,86.47
2023-02-16T08:29:10.309Z,86.44
2023-02-16T08:34:18.811Z,86.43
2023-02-16T08:39:26.721Z,86.44
2023-02-16T08:44:30.713Z,86.32
2023-02-16T08:49:33.821Z,86.19
2023-02-16T08:54:37.330Z,86.43
2023-02-16T08:59:40.440Z,86.46
2023-02-16T09:04:43.659Z,86.48
2023-02-16T09:09:48.600Z,86.49
2023-02-16T09:14:54.354Z,86.43
2023-02-16T09:19:57.466Z,86.16
2023-02-16T09:25:00.777Z,86.12
2023-02-16T09:30:06.252Z,85.92
2023-02-16T09:35:09.659Z,85.86
2023-02-16T09:40:14.374Z,85.75
2023-02-16T09:45:20.549Z,85.71
2023-02-16T09:50:52.095Z,85.64
2023-02-16T09:56:07.047Z,85.49
2023-02-16T10:01:38.984Z,85.10
2023-02-16T10:07:07.819Z,85.06
2023-02-16T10:12:20.483Z,84.82
2023-02-16T10:17:29.593Z,84.97
2023-02-16T10:22:48.601Z,84.62
2023-02-16T10:28:08.789Z,85.07
2023-02-16T10:33:28.070Z,85.30
2023-02-16T10:38:52.985Z,85.29
2023-02-16T10:44:04.696Z,85.04
2023-02-16T10:49:16.069Z,84.71
2023-02-16T10:54:33.109Z,84.49
2023-02-16T10:59:47.472Z,84.74
2023-02-16T11:04:54.394Z,84.59
2023-02-16T11:10:18.909Z,84.74
2023-02-16T11:15:27.560Z,84.46
2023-02-16T11:20:42.541Z,84.42
2023-02-16T11:26:21.476Z,84.18
2023-02-16T11:31:36.745Z,84.00
2023-02-16T11:36:47.746Z,83.90
2023-02-16T11:42:05.396Z,83.90
2023-02-16T11:47:24.880Z,83.65
2023-02-16T11:52:32.810Z,83.20
2023-02-16T11:57:37.658Z,82.87
2023-02-16T12:03:15.662Z,83.33
2023-02-16T12:08:32.613Z,83.25
2023-02-16T12:13:59.992Z,83.14
2023-02-16T12:19:28.688Z,82.86
2023-02-16T12:24:52.704Z,82.64
2023-02-16T12:30:34.151Z,82.43
2023-02-16T12:36:02.221Z,82.63
2023-02-16T12:41:30.170Z,82.24
2023-02-16T12:46:42.784Z,82.19
2023-02-16T12:51:53.908Z,82.01
2023-02-16T12:57:20.651Z,81.92
2023-02-16T13:02:53.662Z,81.88
2023-02-16T13:08:08.194Z,81.56
2023-02-16T13:13:21.780Z,81.34
2023-02-16T13:18:33.579Z,81.63
2023-02-16T13:23:47.679Z,81.63
2023-02-16T13:29:25.253Z,81.68
2023-02-16T13:34:41.488Z,81.80
2023-02-16T13:40:02.841Z,81.74
2023-02-16T13:45:21.604Z,81.76
2023-02-16T13:50:31.765Z,81.37
2023-02-16T13:55:39.353Z,80.58
2023-02-16T14:00:48.073Z,81.00
2023-02-16T14:06:15.513Z,81.04
2023-02-16T14:11:19.431Z,81.16
2023-02-16T14:16:32.607Z,81.50
2023-02-16T14:21:43.159Z,81.44
2023-02-16T14:27:22.094Z,81.43
2023-02-16T14:32:39.457Z,81.73
2023-02-16T14:37:57.088Z,81.91
2023-02-16T14:43:07.245Z,82.28
2023-02-16T14:48:36.889Z,82.50
2023-02-16T14:54:21.301Z,82.79
2023-02-16T14:59:54.709Z,83.08
2023-02-16T15:04:58.703Z,83.21
2023-02-16T15:10:05.760Z,83.32
2023-02-16T15:15:19.793Z,83.32
2023-02-16T15:20:38.640Z,83.54
2023-02-16T15:25:42.461Z,83.68
2023-02-16T15:30:52.831Z,83.82
2023-02-16T15:36:13.425Z,84.14
2023-02-16T15:41:30.400Z,84.32
2023-02-16T15:46:42.202Z,83.93
2023-02-16T15:51:45.648Z,84.24
2023-02-16T15:56:53.756Z,84.22
2023-02-16T16:02:07.157Z,84.02
2023-02-16T16:07:22.274Z,83.96
2023-02-16T16:12:27.061Z,83.78
2023-02-16T16:17:37.932Z,83.66
2023-02-16T16:22:43.154Z,83.71
2023-02-16T16:27:48.620Z,83.65
2023-02-16T16:33:09.181Z,83.53
2023-02-16T16:38:26.222Z,83.50
2023-02-16T16:43:36.402Z,83.08
2023-02-16T16:48:47.575Z,83.08
2023-02-16T16:53:50.652Z,83.36
2023-02-16T16:58:57.054Z,83.17
2023-02-16T17:04:01.268Z,83.18
2023-02-16T17:09:06.017Z,83.81
2023-02-16T17:14:19.561Z,83.79
2023-02-16T17:19:23.788Z,84.04
2023-02-16T17:24:26.988Z,83.96
2023-02-16T17:29:30.208Z,83.77
2023-02-16T17:34:33.347Z,83.69
2023-02-16T17:39:36.921Z,83.62
2023-02-16T17:44:40.057Z,83.47
2023-02-16T17:49:43.642Z,83.46
2023-02-16T17:54:46.753Z,83.85
2023-02-16T17:59:50.173Z,84.11
2023-02-16T18:04:54.500Z,84.24
2023-02-16T18:09:58.015Z,84.46
2023-02-16T18:15:01.123Z,84.33
2023-02-16T18:20:05.189Z,84.28
2023-02-16T18:25:09.241Z,84.06
2023-02-16T18:30:14.355Z,83.93
2023-02-16T18:35:18.903Z,83.55
2023-02-16T18:40:22.193Z,83.52
2023-02-16T18:45:25.501Z,83.85
2023-02-16T18:50:28.916Z,83.88
2023-02-16T18:55:36.131Z,83.93
2023-02-16T19:00:39.369Z,83.89
2023-02-16T19:05:42.743Z,84.00
2023-02-16T19:10:45.971Z,84.12
2023-02-16T19:15:49.517Z,84.07
2023-02-16T19:20:53.390Z,83.97
2023-02-16T19:25:56.499Z,83.76
2023-02-16T19:31:06.328Z,83.80
2023-02-16T19:36:12.809Z,83.92
2023-02-16T19:41:29.418Z,84.11
2023-02-16T19:46:34.386Z,84.31
2023-02-16T19:51:37.517Z,84.86
2023-02-16T19:56:41.663Z,85.14
2023-02-16T20:01:44.897Z,85.58
2023-02-16T20:06:49.394Z,86.33
2023-02-16T20:11:52.827Z,87.29
2023-02-16T20:16:56.124Z,87.71
2023-02-16T20:21:59.335Z,88.18
2023-02-16T20:27:05.818Z,88.53
2023-02-16T20:32:09.239Z,89.00
2023-02-16T20:37:12.646Z,89.33
2023-02-16T20:42:16.035Z,89.60
2023-02-16T20:47:19.383Z,89.75
2023-02-16T20:52:22.477Z,89.89
2023-02-16T20:57:27.265Z,90.21
2023-02-16T21:02:30.631Z,90.24
2023-02-16T21:07:37.637Z,90.24
2023-02-16T21:12:41.440Z,90.02
2023-02-16T21:17:44.663Z,89.82
2023-02-16T21:22:48.085Z,89.67
2023-02-16T21:27:51.291Z,89.54
2023-02-16T21:32:54.389Z,89.47
2023-02-16T21:37:57.803Z,89.43
2023-02-16T21:43:01.017Z,89.43
2023-02-16T21:48:22.757Z,89.37
2023-02-16T21:53:25.963Z,89.26
2023-02-16T21:58:33.881Z,89.21
2023-02-16T22:03:37.634Z,89.14
2023-02-16T22:08:40.741Z,89.28
2023-02-16T22:13:43.813Z,89.31
2023-02-16T22:18:47.935Z,89.23
2023-02-16T22:23:51.048Z,89.21
2023-02-16T22:28:54.682Z,89.22
2023-02-16T22:34:04.391Z,89.31
2023-02-16T22:39:08.535Z,89.26
2023-02-16T22:44:12.801Z,89.35
2023-02-16T22:49:16.120Z,89.23
2023-02-16T22:54:19.320Z,89.05
2023-02-16T22:59:22.531Z,88.94
2023-02-16T23:04:25.954Z,88.81
2023-02-16T23:09:29.179Z,88.82
2023-02-16T23:14:35.944Z,88.89
2023-02-16T23:19:40.416Z,88.84
2023-02-16T23:24:43.794Z,88.82
2023-02-16T23:29:49.295Z,88.95
2023-02-16T23:34:52.572Z,89.10
2023-02-16T23:39:55.778Z,89.20
2023-02-16T23:44:59.183Z,89.33
2023-02-16T23:50:02.288Z,89.48
2023-02-16T23:55:06.212Z,89.74
